메인 페이지
METAR-TAF:

METAR-TAF

공항 :

디레다와, 에티오피아

위도: 09-36N, 경도: 041-52E, 고도: 1146m

METAR: 누락

시각: 18:24 (15:24 UTC)

예보

예보는 5 시간 54분 전, 09:30시(UTC)에 발표되었습니다.
예보 대상 시간: 24일 12시부터 25일 18시까지 (UTC)
북북서10kt
시정: 8000m
고도 2000ft 상공 구름 보통
고도 8000ft 상공 구름 보통
(약한) 연무
일시적
시부터 시까지 (UTC)
24일 15/2시부터 (UTC)
12kt
시정: 9000m
고도 3000ft 상공 구름 많음
고도 8000ft 상공 구름 많음
약한비

TAF: HADR 240930Z 2412/2518 34010KT 8000 -HZ SCT020 SCT080 TEMPO FM2415/2418 18012KT 9000 -RA BKN030 BKN080

4,000개 이상의 공항 관측 자료 및 예보 (METAR 및 TAF 보고).

지도상에서 검색 가능한 기상관측소가 노란 점과 빨간 점으로 표시되어 있습니다.

기상관측소 명을 보려면 표시 위로 마우스를 이동하세요.

날씨 관측과 예보를 보려면 클릭하세요.

지도 변경 : 확대하려면 엑스 표시가 있는 녹색 버튼, 축소하려면 빼기 표시가 있는 녹색 버튼, 다음 페이지의 지도를 보려면 녹색 화살표를 클릭하세요.


METAR-TAF: